sensor_id;sensor_type;location;lat;lon;timestamp;temperature;humidity
71039;SHT30;58692;43.212;27.908;2023-06-26T00:01:14;22.33;88.13
71039;SHT30;58692;43.212;27.908;2023-06-26T00:03:39;22.29;88.13
71039;SHT30;58692;43.212;27.908;2023-06-26T00:06:05;22.33;87.42
71039;SHT30;58692;43.212;27.908;2023-06-26T00:08:30;22.09;89.03
71039;SHT30;58692;43.212;27.908;2023-06-26T00:10:56;21.97;89.20
71039;SHT30;58692;43.212;27.908;2023-06-26T00:13:23;21.93;89.02
71039;SHT30;58692;43.212;27.908;2023-06-26T00:15:49;21.93;90.01
71039;SHT30;58692;43.212;27.908;2023-06-26T00:18:15;22.09;88.98
71039;SHT30;58692;43.212;27.908;2023-06-26T00:20:40;22.10;88.51
71039;SHT30;58692;43.212;27.908;2023-06-26T00:23:06;21.97;89.31
71039;SHT30;58692;43.212;27.908;2023-06-26T00:25:33;22.18;89.04
71039;SHT30;58692;43.212;27.908;2023-06-26T00:27:58;22.27;88.12
71039;SHT30;58692;43.212;27.908;2023-06-26T00:30:24;22.30;87.99
71039;SHT30;58692;43.212;27.908;2023-06-26T00:32:49;22.24;89.13
71039;SHT30;58692;43.212;27.908;2023-06-26T00:35:15;22.26;88.31
71039;SHT30;58692;43.212;27.908;2023-06-26T00:37:41;22.35;88.74
71039;SHT30;58692;43.212;27.908;2023-06-26T00:40:07;22.37;88.26
71039;SHT30;58692;43.212;27.908;2023-06-26T00:42:32;22.26;88.95
71039;SHT30;58692;43.212;27.908;2023-06-26T00:44:58;22.36;88.47
71039;SHT30;58692;43.212;27.908;2023-06-26T00:47:23;22.33;88.12
71039;SHT30;58692;43.212;27.908;2023-06-26T00:49:49;22.32;88.57
71039;SHT30;58692;43.212;27.908;2023-06-26T00:52:15;22.30;88.41
71039;SHT30;58692;43.212;27.908;2023-06-26T00:54:42;22.32;88.02
71039;SHT30;58692;43.212;27.908;2023-06-26T00:57:07;22.30;88.28
71039;SHT30;58692;43.212;27.908;2023-06-26T00:59:34;22.33;88.67
71039;SHT30;58692;43.212;27.908;2023-06-26T01:01:59;22.17;89.79
71039;SHT30;58692;43.212;27.908;2023-06-26T01:04:25;21.90;89.46
71039;SHT30;58692;43.212;27.908;2023-06-26T01:06:54;22.12;88.78
71039;SHT30;58692;43.212;27.908;2023-06-26T01:09:21;22.20;88.79
71039;SHT30;58692;43.212;27.908;2023-06-26T01:11:47;22.16;88.98
71039;SHT30;58692;43.212;27.908;2023-06-26T01:14:13;22.21;89.88
71039;SHT30;58692;43.212;27.908;2023-06-26T01:16:40;22.33;88.50
71039;SHT30;58692;43.212;27.908;2023-06-26T01:19:11;22.39;88.35
71039;SHT30;58692;43.212;27.908;2023-06-26T01:21:42;22.36;88.28
71039;SHT30;58692;43.212;27.908;2023-06-26T01:24:15;22.37;87.78
71039;SHT30;58692;43.212;27.908;2023-06-26T01:26:46;22.40;87.86
71039;SHT30;58692;43.212;27.908;2023-06-26T01:29:14;22.50;89.56
71039;SHT30;58692;43.212;27.908;2023-06-26T01:31:41;22.50;89.02
71039;SHT30;58692;43.212;27.908;2023-06-26T01:34:07;22.57;87.82
71039;SHT30;58692;43.212;27.908;2023-06-26T01:36:32;22.58;87.45
71039;SHT30;58692;43.212;27.908;2023-06-26T01:38:58;22.61;87.10
71039;SHT30;58692;43.212;27.908;2023-06-26T01:41:23;22.58;87.00
71039;SHT30;58692;43.212;27.908;2023-06-26T01:46:21;22.61;87.42
71039;SHT30;58692;43.212;27.908;2023-06-26T01:48:59;22.61;87.37
71039;SHT30;58692;43.212;27.908;2023-06-26T01:51:31;22.57;88.03
71039;SHT30;58692;43.212;27.908;2023-06-26T01:53:58;22.58;87.08
71039;SHT30;58692;43.212;27.908;2023-06-26T01:56:25;22.44;87.69
71039;SHT30;58692;43.212;27.908;2023-06-26T01:58:53;22.53;87.06
71039;SHT30;58692;43.212;27.908;2023-06-26T02:01:20;22.51;86.75
71039;SHT30;58692;43.212;27.908;2023-06-26T02:03:46;22.43;86.90
71039;SHT30;58692;43.212;27.908;2023-06-26T02:06:11;22.46;86.99
71039;SHT30;58692;43.212;27.908;2023-06-26T02:08:37;22.43;88.36
71039;SHT30;58692;43.212;27.908;2023-06-26T02:11:02;22.43;88.06
71039;SHT30;58692;43.212;27.908;2023-06-26T02:13:28;22.41;87.55
71039;SHT30;58692;43.212;27.908;2023-06-26T02:15:53;22.39;88.10
71039;SHT30;58692;43.212;27.908;2023-06-26T02:18:19;22.33;88.31
71039;SHT30;58692;43.212;27.908;2023-06-26T02:20:46;22.14;88.23
71039;SHT30;58692;43.212;27.908;2023-06-26T02:23:11;22.18;88.60
71039;SHT30;58692;43.212;27.908;2023-06-26T02:25:37;22.27;88.44
71039;SHT30;58692;43.212;27.908;2023-06-26T02:28:03;22.39;88.08
71039;SHT30;58692;43.212;27.908;2023-06-26T02:30:29;22.36;88.05
71039;SHT30;58692;43.212;27.908;2023-06-26T02:32:55;22.03;89.03
71039;SHT30;58692;43.212;27.908;2023-06-26T02:35:20;22.17;88.47
71039;SHT30;58692;43.212;27.908;2023-06-26T02:37:45;22.32;88.78
71039;SHT30;58692;43.212;27.908;2023-06-26T02:40:11;22.33;88.64
71039;SHT30;58692;43.212;27.908;2023-06-26T02:42:37;22.39;87.93
71039;SHT30;58692;43.212;27.908;2023-06-26T02:45:03;22.33;88.17
71039;SHT30;58692;43.212;27.908;2023-06-26T02:47:28;22.21;88.90
71039;SHT30;58692;43.212;27.908;2023-06-26T02:49:54;22.23;88.79
71039;SHT30;58692;43.212;27.908;2023-06-26T02:52:19;22.30;88.78
71039;SHT30;58692;43.212;27.908;2023-06-26T02:54:45;22.36;88.35
71039;SHT30;58692;43.212;27.908;2023-06-26T02:57:10;22.43;88.17
71039;SHT30;58692;43.212;27.908;2023-06-26T02:59:38;22.32;88.82
71039;SHT30;58692;43.212;27.908;2023-06-26T03:02:04;22.27;88.79
71039;SHT30;58692;43.212;27.908;2023-06-26T03:04:30;22.33;88.86
71039;SHT30;58692;43.212;27.908;2023-06-26T03:06:55;22.41;88.72
71039;SHT30;58692;43.212;27.908;2023-06-26T03:09:21;22.39;88.70
71039;SHT30;58692;43.212;27.908;2023-06-26T03:11:47;22.50;88.20
71039;SHT30;58692;43.212;27.908;2023-06-26T03:14:12;22.39;89.01
71039;SHT30;58692;43.212;27.908;2023-06-26T03:16:38;22.41;89.39
71039;SHT30;58692;43.212;27.908;2023-06-26T03:19:03;22.51;88.17
71039;SHT30;58692;43.212;27.908;2023-06-26T03:21:29;22.44;88.19
71039;SHT30;58692;43.212;27.908;2023-06-26T03:23:55;22.57;87.98
71039;SHT30;58692;43.212;27.908;2023-06-26T03:26:20;22.63;88.03
71039;SHT30;58692;43.212;27.908;2023-06-26T03:28:54;22.77;87.63
71039;SHT30;58692;43.212;27.908;2023-06-26T03:31:20;22.81;87.33
71039;SHT30;58692;43.212;27.908;2023-06-26T03:33:46;22.84;87.95
71039;SHT30;58692;43.212;27.908;2023-06-26T03:36:11;23.04;86.82
71039;SHT30;58692;43.212;27.908;2023-06-26T03:38:37;23.23;86.28
71039;SHT30;58692;43.212;27.908;2023-06-26T03:41:03;23.39;85.88
71039;SHT30;58692;43.212;27.908;2023-06-26T03:43:28;23.72;84.93
71039;SHT30;58692;43.212;27.908;2023-06-26T03:45:54;23.86;84.02
71039;SHT30;58692;43.212;27.908;2023-06-26T03:48:20;23.79;84.00
71039;SHT30;58692;43.212;27.908;2023-06-26T03:50:45;23.58;85.43
71039;SHT30;58692;43.212;27.908;2023-06-26T03:53:11;23.60;85.15
71039;SHT30;58692;43.212;27.908;2023-06-26T03:55:37;23.82;84.34
71039;SHT30;58692;43.212;27.908;2023-06-26T03:58:04;24.14;83.63
71039;SHT30;58692;43.212;27.908;2023-06-26T04:00:29;24.20;82.78
71039;SHT30;58692;43.212;27.908;2023-06-26T04:02:55;24.54;81.93
71039;SHT30;58692;43.212;27.908;2023-06-26T04:05:20;24.58;81.68
71039;SHT30;58692;43.212;27.908;2023-06-26T04:07:50;24.57;81.54
71039;SHT30;58692;43.212;27.908;2023-06-26T04:10:15;24.74;80.93
71039;SHT30;58692;43.212;27.908;2023-06-26T04:12:41;24.82;81.15
71039;SHT30;58692;43.212;27.908;2023-06-26T04:15:07;24.95;79.83
71039;SHT30;58692;43.212;27.908;2023-06-26T04:17:32;25.01;79.80
71039;SHT30;58692;43.212;27.908;2023-06-26T04:19:58;25.12;79.21
71039;SHT30;58692;43.212;27.908;2023-06-26T04:22:23;25.20;78.75
71039;SHT30;58692;43.212;27.908;2023-06-26T04:24:50;25.25;78.95
71039;SHT30;58692;43.212;27.908;2023-06-26T04:27:15;25.26;78.69
71039;SHT30;58692;43.212;27.908;2023-06-26T04:29:42;25.15;79.41
71039;SHT30;58692;43.212;27.908;2023-06-26T04:32:12;25.25;78.43
71039;SHT30;58692;43.212;27.908;2023-06-26T04:34:38;25.35;78.09
71039;SHT30;58692;43.212;27.908;2023-06-26T04:37:06;25.06;79.01
71039;SHT30;58692;43.212;27.908;2023-06-26T04:39:35;24.86;78.86
71039;SHT30;58692;43.212;27.908;2023-06-26T04:42:03;25.39;77.58
71039;SHT30;58692;43.212;27.908;2023-06-26T04:44:28;25.63;77.05
71039;SHT30;58692;43.212;27.908;2023-06-26T04:46:54;25.71;76.67
71039;SHT30;58692;43.212;27.908;2023-06-26T04:49:19;25.11;77.89
71039;SHT30;58692;43.212;27.908;2023-06-26T04:51:45;24.79;78.72
71039;SHT30;58692;43.212;27.908;2023-06-26T04:54:14;24.55;79.49
71039;SHT30;58692;43.212;27.908;2023-06-26T04:56:40;24.55;79.81
71039;SHT30;58692;43.212;27.908;2023-06-26T04:59:05;24.50;79.67
71039;SHT30;58692;43.212;27.908;2023-06-26T05:01:31;24.61;79.22
71039;SHT30;58692;43.212;27.908;2023-06-26T05:04:04;24.78;79.08
71039;SHT30;58692;43.212;27.908;2023-06-26T05:06:29;24.50;79.04
71039;SHT30;58692;43.212;27.908;2023-06-26T05:08:55;24.38;79.53
71039;SHT30;58692;43.212;27.908;2023-06-26T05:11:21;24.28;79.69
71039;SHT30;58692;43.212;27.908;2023-06-26T05:13:47;24.33;80.65
71039;SHT30;58692;43.212;27.908;2023-06-26T05:16:13;24.43;79.46
71039;SHT30;58692;43.212;27.908;2023-06-26T05:21:25;24.23;79.90
71039;SHT30;58692;43.212;27.908;2023-06-26T05:23:52;24.21;80.20
71039;SHT30;58692;43.212;27.908;2023-06-26T05:26:21;24.20;79.90
71039;SHT30;58692;43.212;27.908;2023-06-26T05:28:47;23.99;80.56
71039;SHT30;58692;43.212;27.908;2023-06-26T05:31:17;24.16;80.33
71039;SHT30;58692;43.212;27.908;2023-06-26T05:33:46;24.27;79.88
71039;SHT30;58692;43.212;27.908;2023-06-26T05:36:16;24.30;79.84
71039;SHT30;58692;43.212;27.908;2023-06-26T05:38:45;24.30;80.05
71039;SHT30;58692;43.212;27.908;2023-06-26T05:41:11;24.34;79.77
71039;SHT30;58692;43.212;27.908;2023-06-26T05:43:36;24.40;79.76
71039;SHT30;58692;43.212;27.908;2023-06-26T05:46:06;24.33;79.70
71039;SHT30;58692;43.212;27.908;2023-06-26T05:48:31;24.28;79.50
71039;SHT30;58692;43.212;27.908;2023-06-26T05:50:57;24.25;79.38
71039;SHT30;58692;43.212;27.908;2023-06-26T05:53:26;24.14;79.79
71039;SHT30;58692;43.212;27.908;2023-06-26T05:55:52;24.28;79.55
71039;SHT30;58692;43.212;27.908;2023-06-26T05:58:19;24.33;79.51
71039;SHT30;58692;43.212;27.908;2023-06-26T06:00:45;24.25;79.71
71039;SHT30;58692;43.212;27.908;2023-06-26T06:03:12;24.37;79.85
71039;SHT30;58692;43.212;27.908;2023-06-26T06:05:37;24.43;79.61
71039;SHT30;58692;43.212;27.908;2023-06-26T06:08:03;24.30;79.37
71039;SHT30;58692;43.212;27.908;2023-06-26T06:10:40;24.37;79.39
71039;SHT30;58692;43.212;27.908;2023-06-26T06:13:05;24.53;79.18
71039;SHT30;58692;43.212;27.908;2023-06-26T06:15:31;24.54;79.41
71039;SHT30;58692;43.212;27.908;2023-06-26T06:18:01;24.63;79.14
71039;SHT30;58692;43.212;27.908;2023-06-26T06:20:27;24.71;78.57
71039;SHT30;58692;43.212;27.908;2023-06-26T06:23:03;24.74;78.83
71039;SHT30;58692;43.212;27.908;2023-06-26T06:25:29;24.82;78.09
71039;SHT30;58692;43.212;27.908;2023-06-26T06:27:55;24.84;77.47
71039;SHT30;58692;43.212;27.908;2023-06-26T06:30:21;24.69;77.68
71039;SHT30;58692;43.212;27.908;2023-06-26T06:32:47;24.81;77.86
71039;SHT30;58692;43.212;27.908;2023-06-26T06:35:17;25.14;77.48
71039;SHT30;58692;43.212;27.908;2023-06-26T06:37:43;25.37;76.61
71039;SHT30;58692;43.212;27.908;2023-06-26T06:40:10;25.83;74.50
71039;SHT30;58692;43.212;27.908;2023-06-26T06:42:41;25.88;74.22
71039;SHT30;58692;43.212;27.908;2023-06-26T06:45:27;25.73;74.74
71039;SHT30;58692;43.212;27.908;2023-06-26T06:47:55;25.59;74.58
71039;SHT30;58692;43.212;27.908;2023-06-26T06:50:21;25.43;74.63
71039;SHT30;58692;43.212;27.908;2023-06-26T06:52:46;25.53;74.76
71039;SHT30;58692;43.212;27.908;2023-06-26T06:55:12;25.67;74.22
71039;SHT30;58692;43.212;27.908;2023-06-26T06:57:39;25.87;73.93
71039;SHT30;58692;43.212;27.908;2023-06-26T07:00:13;26.11;73.54
71039;SHT30;58692;43.212;27.908;2023-06-26T07:02:46;26.31;71.92
71039;SHT30;58692;43.212;27.908;2023-06-26T07:05:12;26.42;70.86
71039;SHT30;58692;43.212;27.908;2023-06-26T07:07:40;27.26;69.12
71039;SHT30;58692;43.212;27.908;2023-06-26T07:10:09;27.54;68.30
71039;SHT30;58692;43.212;27.908;2023-06-26T07:12:36;27.10;69.22
71039;SHT30;58692;43.212;27.908;2023-06-26T07:15:03;27.32;68.30
71039;SHT30;58692;43.212;27.908;2023-06-26T07:17:32;26.62;70.22
71039;SHT30;58692;43.212;27.908;2023-06-26T07:20:06;26.81;69.64
71039;SHT30;58692;43.212;27.908;2023-06-26T07:22:43;26.58;69.74
71039;SHT30;58692;43.212;27.908;2023-06-26T07:25:11;26.28;70.87
71039;SHT30;58692;43.212;27.908;2023-06-26T07:27:38;26.16;71.73
71039;SHT30;58692;43.212;27.908;2023-06-26T07:30:04;26.41;71.00
71039;SHT30;58692;43.212;27.908;2023-06-26T07:32:44;26.44;70.53
71039;SHT30;58692;43.212;27.908;2023-06-26T07:35:25;26.47;70.52
71039;SHT30;58692;43.212;27.908;2023-06-26T07:37:53;26.78;69.57
71039;SHT30;58692;43.212;27.908;2023-06-26T07:40:21;26.76;69.82
71039;SHT30;58692;43.212;27.908;2023-06-26T07:43:20;26.88;69.31
71039;SHT30;58692;43.212;27.908;2023-06-26T07:45:49;26.98;69.17
71039;SHT30;58692;43.212;27.908;2023-06-26T07:48:17;26.91;69.80
71039;SHT30;58692;43.212;27.908;2023-06-26T07:50:46;26.83;69.80
71039;SHT30;58692;43.212;27.908;2023-06-26T07:53:16;27.03;69.60
71039;SHT30;58692;43.212;27.908;2023-06-26T07:55:42;26.69;68.98
71039;SHT30;58692;43.212;27.908;2023-06-26T07:58:08;26.37;70.01
71039;SHT30;58692;43.212;27.908;2023-06-26T08:00:35;26.32;69.76
71039;SHT30;58692;43.212;27.908;2023-06-26T08:03:00;26.24;69.61
71039;SHT30;58692;43.212;27.908;2023-06-26T08:05:26;26.18;69.95
71039;SHT30;58692;43.212;27.908;2023-06-26T08:07:52;26.27;69.95
71039;SHT30;58692;43.212;27.908;2023-06-26T08:10:17;26.31;69.57
71039;SHT30;58692;43.212;27.908;2023-06-26T08:12:43;26.40;69.50
71039;SHT30;58692;43.212;27.908;2023-06-26T08:15:11;26.40;69.34
71039;SHT30;58692;43.212;27.908;2023-06-26T08:17:37;26.56;69.11
71039;SHT30;58692;43.212;27.908;2023-06-26T08:20:04;26.65;69.12
71039;SHT30;58692;43.212;27.908;2023-06-26T08:22:32;26.69;69.28
71039;SHT30;58692;43.212;27.908;2023-06-26T08:24:58;26.86;68.63
71039;SHT30;58692;43.212;27.908;2023-06-26T08:27:24;26.65;69.08
71039;SHT30;58692;43.212;27.908;2023-06-26T08:29:50;26.75;68.38
71039;SHT30;58692;43.212;27.908;2023-06-26T08:32:16;26.96;68.03
71039;SHT30;58692;43.212;27.908;2023-06-26T08:34:44;27.40;66.65
71039;SHT30;58692;43.212;27.908;2023-06-26T08:37:09;27.51;66.09
71039;SHT30;58692;43.212;27.908;2023-06-26T08:39:35;27.83;65.30
71039;SHT30;58692;43.212;27.908;2023-06-26T08:42:04;27.74;65.62
71039;SHT30;58692;43.212;27.908;2023-06-26T08:44:29;27.87;65.77
71039;SHT30;58692;43.212;27.908;2023-06-26T08:46:55;28.80;63.55
71039;SHT30;58692;43.212;27.908;2023-06-26T08:49:25;29.51;61.68
71039;SHT30;58692;43.212;27.908;2023-06-26T08:51:59;29.68;61.36
71039;SHT30;58692;43.212;27.908;2023-06-26T08:54:34;29.97;60.89
71039;SHT30;58692;43.212;27.908;2023-06-26T08:57:09;29.91;60.60
71039;SHT30;58692;43.212;27.908;2023-06-26T08:59:35;29.67;60.62
71039;SHT30;58692;43.212;27.908;2023-06-26T09:02:01;29.31;59.99
71039;SHT30;58692;43.212;27.908;2023-06-26T09:04:28;29.13;59.95
71039;SHT30;58692;43.212;27.908;2023-06-26T09:06:54;29.54;59.52
71039;SHT30;58692;43.212;27.908;2023-06-26T09:09:19;29.57;58.43
71039;SHT30;58692;43.212;27.908;2023-06-26T09:11:45;29.13;58.99
71039;SHT30;58692;43.212;27.908;2023-06-26T09:14:14;29.47;58.71
71039;SHT30;58692;43.212;27.908;2023-06-26T09:16:41;29.31;59.06
71039;SHT30;58692;43.212;27.908;2023-06-26T09:19:10;29.19;58.95
71039;SHT30;58692;43.212;27.908;2023-06-26T09:21:39;29.04;59.77
71039;SHT30;58692;43.212;27.908;2023-06-26T09:24:06;29.06;60.59
71039;SHT30;58692;43.212;27.908;2023-06-26T09:26:32;29.02;60.89
71039;SHT30;58692;43.212;27.908;2023-06-26T09:29:00;29.13;60.16
71039;SHT30;58692;43.212;27.908;2023-06-26T09:31:29;29.33;59.35
71039;SHT30;58692;43.212;27.908;2023-06-26T09:33:59;29.30;58.85
71039;SHT30;58692;43.212;27.908;2023-06-26T09:36:27;29.40;58.26
71039;SHT30;58692;43.212;27.908;2023-06-26T09:38:54;29.50;58.16
71039;SHT30;58692;43.212;27.908;2023-06-26T09:41:21;29.70;57.82
71039;SHT30;58692;43.212;27.908;2023-06-26T09:43:47;29.91;57.71
71039;SHT30;58692;43.212;27.908;2023-06-26T09:46:17;30.00;57.32
71039;SHT30;58692;43.212;27.908;2023-06-26T09:48:43;29.67;58.89
71039;SHT30;58692;43.212;27.908;2023-06-26T09:51:10;29.88;58.49
71039;SHT30;58692;43.212;27.908;2023-06-26T09:53:36;30.33;57.31
71039;SHT30;58692;43.212;27.908;2023-06-26T09:56:06;30.33;56.72
71039;SHT30;58692;43.212;27.908;2023-06-26T09:58:35;30.37;56.59
71039;SHT30;58692;43.212;27.908;2023-06-26T10:01:01;30.12;56.92
71039;SHT30;58692;43.212;27.908;2023-06-26T10:03:27;30.26;56.15
71039;SHT30;58692;43.212;27.908;2023-06-26T10:05:57;30.35;55.79
71039;SHT30;58692;43.212;27.908;2023-06-26T10:08:23;30.21;56.78
71039;SHT30;58692;43.212;27.908;2023-06-26T10:10:49;30.11;56.44
71039;SHT30;58692;43.212;27.908;2023-06-26T10:13:18;30.39;55.92
71039;SHT30;58692;43.212;27.908;2023-06-26T10:15:48;30.53;54.89
71039;SHT30;58692;43.212;27.908;2023-06-26T10:18:17;30.64;54.56
71039;SHT30;58692;43.212;27.908;2023-06-26T10:20:47;30.66;54.04
71039;SHT30;58692;43.212;27.908;2023-06-26T10:23:14;30.51;54.63
71039;SHT30;58692;43.212;27.908;2023-06-26T10:25:42;30.25;54.99
71039;SHT30;58692;43.212;27.908;2023-06-26T10:28:11;30.11;55.25
71039;SHT30;58692;43.212;27.908;2023-06-26T10:30:39;29.84;55.20
71039;SHT30;58692;43.212;27.908;2023-06-26T10:33:05;29.74;55.62
71039;SHT30;58692;43.212;27.908;2023-06-26T10:35:33;30.18;54.56
71039;SHT30;58692;43.212;27.908;2023-06-26T10:38:01;30.04;55.62
71039;SHT30;58692;43.212;27.908;2023-06-26T10:40:40;30.13;55.64
71039;SHT30;58692;43.212;27.908;2023-06-26T10:43:08;29.97;55.81
71039;SHT30;58692;43.212;27.908;2023-06-26T10:45:35;29.58;55.07
71039;SHT30;58692;43.212;27.908;2023-06-26T10:48:02;29.60;55.74
71039;SHT30;58692;43.212;27.908;2023-06-26T10:50:32;29.53;54.85
71039;SHT30;58692;43.212;27.908;2023-06-26T10:55:55;29.13;55.46
71039;SHT30;58692;43.212;27.908;2023-06-26T11:01:17;29.27;55.45
71039;SHT30;58692;43.212;27.908;2023-06-26T11:03:48;29.38;54.82
71039;SHT30;58692;43.212;27.908;2023-06-26T11:06:19;29.34;54.98
71039;SHT30;58692;43.212;27.908;2023-06-26T11:08:59;29.30;55.51
71039;SHT30;58692;43.212;27.908;2023-06-26T11:14:25;29.78;53.94
71039;SHT30;58692;43.212;27.908;2023-06-26T11:16:52;30.33;52.90
71039;SHT30;58692;43.212;27.908;2023-06-26T11:19:20;30.49;52.28
71039;SHT30;58692;43.212;27.908;2023-06-26T11:21:49;30.66;51.31
71039;SHT30;58692;43.212;27.908;2023-06-26T11:24:15;30.63;51.39
71039;SHT30;58692;43.212;27.908;2023-06-26T11:26:42;30.47;52.60
71039;SHT30;58692;43.212;27.908;2023-06-26T11:29:10;30.08;53.19
71039;SHT30;58692;43.212;27.908;2023-06-26T11:31:37;30.18;53.22
71039;SHT30;58692;43.212;27.908;2023-06-26T11:34:05;31.44;51.31
71039;SHT30;58692;43.212;27.908;2023-06-26T11:36:33;30.94;52.28
71039;SHT30;58692;43.212;27.908;2023-06-26T11:39:04;30.64;52.23
71039;SHT30;58692;43.212;27.908;2023-06-26T11:41:32;31.75;50.16
71039;SHT30;58692;43.212;27.908;2023-06-26T11:44:07;32.67;48.93
71039;SHT30;58692;43.212;27.908;2023-06-26T11:46:34;32.55;46.99
71039;SHT30;58692;43.212;27.908;2023-06-26T11:49:04;33.06;45.91
71039;SHT30;58692;43.212;27.908;2023-06-26T11:51:30;33.35;45.43
71039;SHT30;58692;43.212;27.908;2023-06-26T11:53:55;33.58;45.46
71039;SHT30;58692;43.212;27.908;2023-06-26T11:56:21;33.06;46.63
71039;SHT30;58692;43.212;27.908;2023-06-26T12:01:23;31.81;49.66
71039;SHT30;58692;43.212;27.908;2023-06-26T12:03:50;29.51;63.73
71039;SHT30;58692;43.212;27.908;2023-06-26T12:06:16;28.12;69.31
71039;SHT30;58692;43.212;27.908;2023-06-26T12:08:42;27.23;72.96
71039;SHT30;58692;43.212;27.908;2023-06-26T12:11:08;26.47;76.35
71039;SHT30;58692;43.212;27.908;2023-06-26T12:13:34;25.93;77.58
71039;SHT30;58692;43.212;27.908;2023-06-26T12:15:59;26.01;77.26
71039;SHT30;58692;43.212;27.908;2023-06-26T12:18:25;25.74;77.84
71039;SHT30;58692;43.212;27.908;2023-06-26T12:20:52;25.69;77.78
71039;SHT30;58692;43.212;27.908;2023-06-26T12:23:17;25.56;77.65
71039;SHT30;58692;43.212;27.908;2023-06-26T12:25:43;25.46;77.98
71039;SHT30;58692;43.212;27.908;2023-06-26T12:28:17;25.42;77.71
71039;SHT30;58692;43.212;27.908;2023-06-26T12:30:47;25.45;77.22
71039;SHT30;58692;43.212;27.908;2023-06-26T12:33:15;25.36;77.39
71039;SHT30;58692;43.212;27.908;2023-06-26T12:35:41;25.16;78.54
71039;SHT30;58692;43.212;27.908;2023-06-26T12:38:08;25.57;76.97
71039;SHT30;58692;43.212;27.908;2023-06-26T12:40:44;25.46;77.70
71039;SHT30;58692;43.212;27.908;2023-06-26T12:43:11;25.56;77.32
71039;SHT30;58692;43.212;27.908;2023-06-26T12:45:47;25.57;77.21
71039;SHT30;58692;43.212;27.908;2023-06-26T12:48:12;25.71;76.73
71039;SHT30;58692;43.212;27.908;2023-06-26T12:50:44;25.65;76.71
71039;SHT30;58692;43.212;27.908;2023-06-26T12:53:11;25.74;76.55
71039;SHT30;58692;43.212;27.908;2023-06-26T12:55:36;25.63;76.75
71039;SHT30;58692;43.212;27.908;2023-06-26T12:58:02;25.80;76.49
71039;SHT30;58692;43.212;27.908;2023-06-26T13:00:27;25.80;76.89
71039;SHT30;58692;43.212;27.908;2023-06-26T13:02:53;25.87;76.73
71039;SHT30;58692;43.212;27.908;2023-06-26T13:05:19;25.83;76.85
71039;SHT30;58692;43.212;27.908;2023-06-26T13:07:44;25.97;76.71
71039;SHT30;58692;43.212;27.908;2023-06-26T13:10:10;26.07;76.22
71039;SHT30;58692;43.212;27.908;2023-06-26T13:12:35;26.17;75.72
71039;SHT30;58692;43.212;27.908;2023-06-26T13:15:01;25.80;76.18
71039;SHT30;58692;43.212;27.908;2023-06-26T13:17:26;26.10;75.99
71039;SHT30;58692;43.212;27.908;2023-06-26T13:19:52;26.28;75.17
71039;SHT30;58692;43.212;27.908;2023-06-26T13:22:17;26.27;75.44
71039;SHT30;58692;43.212;27.908;2023-06-26T13:24:43;26.22;75.35
71039;SHT30;58692;43.212;27.908;2023-06-26T13:27:08;26.16;75.52
71039;SHT30;58692;43.212;27.908;2023-06-26T13:29:34;25.94;76.25
71039;SHT30;58692;43.212;27.908;2023-06-26T13:31:59;26.14;76.43
71039;SHT30;58692;43.212;27.908;2023-06-26T13:34:25;26.32;76.46
71039;SHT30;58692;43.212;27.908;2023-06-26T13:36:53;26.07;77.01
71039;SHT30;58692;43.212;27.908;2023-06-26T13:39:18;25.96;77.02
71039;SHT30;58692;43.212;27.908;2023-06-26T13:41:44;26.11;76.55
71039;SHT30;58692;43.212;27.908;2023-06-26T13:44:10;26.00;76.76
71039;SHT30;58692;43.212;27.908;2023-06-26T13:46:35;26.11;76.21
71039;SHT30;58692;43.212;27.908;2023-06-26T13:49:01;26.37;75.88
71039;SHT30;58692;43.212;27.908;2023-06-26T13:51:26;26.24;74.12
71039;SHT30;58692;43.212;27.908;2023-06-26T13:53:52;26.30;72.13
71039;SHT30;58692;43.212;27.908;2023-06-26T13:56:17;26.38;71.15
71039;SHT30;58692;43.212;27.908;2023-06-26T13:58:43;26.31;70.99
71039;SHT30;58692;43.212;27.908;2023-06-26T14:01:09;26.32;73.38
71039;SHT30;58692;43.212;27.908;2023-06-26T14:03:34;26.17;74.38
71039;SHT30;58692;43.212;27.908;2023-06-26T14:06:00;26.18;74.38
71039;SHT30;58692;43.212;27.908;2023-06-26T14:08:25;26.11;74.81
71039;SHT30;58692;43.212;27.908;2023-06-26T14:10:51;26.34;74.03
71039;SHT30;58692;43.212;27.908;2023-06-26T14:13:16;25.91;75.57
71039;SHT30;58692;43.212;27.908;2023-06-26T14:15:42;25.98;74.84
71039;SHT30;58692;43.212;27.908;2023-06-26T14:18:08;25.81;75.54
71039;SHT30;58692;43.212;27.908;2023-06-26T14:20:33;25.83;75.54
71039;SHT30;58692;43.212;27.908;2023-06-26T14:23:01;25.69;75.93
71039;SHT30;58692;43.212;27.908;2023-06-26T14:25:27;25.66;75.41
71039;SHT30;58692;43.212;27.908;2023-06-26T14:27:54;25.80;75.39
71039;SHT30;58692;43.212;27.908;2023-06-26T14:30:20;26.04;73.66
71039;SHT30;58692;43.212;27.908;2023-06-26T14:32:46;26.01;72.81
71039;SHT30;58692;43.212;27.908;2023-06-26T14:35:11;25.91;73.90
71039;SHT30;58692;43.212;27.908;2023-06-26T14:37:37;25.87;74.22
71039;SHT30;58692;43.212;27.908;2023-06-26T14:40:06;25.71;75.42
71039;SHT30;58692;43.212;27.908;2023-06-26T14:42:32;25.59;74.75
71039;SHT30;58692;43.212;27.908;2023-06-26T14:44:58;25.40;75.10
71039;SHT30;58692;43.212;27.908;2023-06-26T14:47:23;25.46;74.99
71039;SHT30;58692;43.212;27.908;2023-06-26T14:49:49;25.40;74.48
71039;SHT30;58692;43.212;27.908;2023-06-26T14:52:14;25.19;75.42
71039;SHT30;58692;43.212;27.908;2023-06-26T14:54:40;25.26;75.09
71039;SHT30;58692;43.212;27.908;2023-06-26T14:57:07;25.25;75.11
71039;SHT30;58692;43.212;27.908;2023-06-26T14:59:32;25.19;74.24
71039;SHT30;58692;43.212;27.908;2023-06-26T15:01:58;25.20;75.15
71039;SHT30;58692;43.212;27.908;2023-06-26T15:04:24;25.36;73.67
71039;SHT30;58692;43.212;27.908;2023-06-26T15:06:49;25.49;72.32
71039;SHT30;58692;43.212;27.908;2023-06-26T15:09:15;25.60;72.59
71039;SHT30;58692;43.212;27.908;2023-06-26T15:11:40;25.59;72.25
71039;SHT30;58692;43.212;27.908;2023-06-26T15:14:06;25.71;71.71
71039;SHT30;58692;43.212;27.908;2023-06-26T15:16:31;25.60;72.39
71039;SHT30;58692;43.212;27.908;2023-06-26T15:18:57;25.76;72.05
71039;SHT30;58692;43.212;27.908;2023-06-26T15:21:23;25.54;74.08
71039;SHT30;58692;43.212;27.908;2023-06-26T15:23:50;25.39;75.06
71039;SHT30;58692;43.212;27.908;2023-06-26T15:26:15;25.43;75.68
71039;SHT30;58692;43.212;27.908;2023-06-26T15:28:41;25.60;75.01
71039;SHT30;58692;43.212;27.908;2023-06-26T15:31:07;25.70;74.03